Time;durP1;ratioP1;P1;durP2;ratioP2;P2;SDS_P1;SDS_P2;PMS_P1;PMS_P2;Temp;Humidity;BMP_temperature;BMP_pressure;BME280_temperature;BME280_humidity;BME280_pressure;Samples;Min_cycle;Max_cycle;Signal;HPM_P1;HPM_P2
2023/10/28 00:00:06;;;;;;;9.90;8.00;;;;;;;9.20;100.00;96053.48;110033;1271;22224;-90
2023/10/28 00:02:55;;;;;;;12.70;8.70;;;;;;;9.21;100.00;96055.44;110029;1279;23041;-90
2023/10/28 00:05:24;;;;;;;9.90;8.90;;;;;;;9.18;100.00;96058.32;109999;1282;22700;-89
2023/10/28 00:07:52;;;;;;;9.50;8.40;;;;;;;9.19;100.00;96066.88;110114;1269;22166;-88
2023/10/28 00:10:21;;;;;;;10.00;8.30;;;;;;;9.18;100.00;96073.98;110043;1282;22084;-92
2023/10/28 00:12:50;;;;;;;9.60;8.40;;;;;;;9.19;100.00;96079.55;110015;1277;22333;-90
2023/10/28 00:15:18;;;;;;;11.10;8.60;;;;;;;9.20;100.00;96083.64;110005;1282;22358;-92
2023/10/28 00:17:47;;;;;;;9.90;8.40;;;;;;;9.19;100.00;96085.55;110002;1271;22217;-90
2023/10/28 00:20:19;;;;;;;9.70;7.70;;;;;;;9.21;100.00;96084.77;110041;1271;22231;-89
2023/10/28 00:22:49;;;;;;;11.10;9.00;;;;;;;9.20;100.00;96096.39;109942;1272;22263;-92
2023/10/28 00:25:17;;;;;;;8.80;7.90;;;;;;;9.17;100.00;96095.45;110029;1278;22179;-90
2023/10/28 00:27:45;;;;;;;9.40;8.10;;;;;;;9.17;100.00;96101.76;109984;1279;22197;-91
2023/10/28 00:30:13;;;;;;;13.20;7.20;;;;;;;9.17;100.00;96099.62;110005;1282;22890;-91
2023/10/28 00:32:42;;;;;;;11.20;7.50;;;;;;;9.20;100.00;96104.02;110024;1278;22185;-90
2023/10/28 00:35:13;;;;;;;14.50;6.60;;;;;;;9.18;100.00;96103.47;110045;1280;22210;-88
2023/10/28 00:37:42;;;;;;;8.80;6.50;;;;;;;9.19;100.00;96100.58;110068;1278;22221;-89
2023/10/28 00:40:10;;;;;;;10.50;6.80;;;;;;;9.19;100.00;96097.77;109969;1259;22206;-90
2023/10/28 00:42:38;;;;;;;7.30;6.50;;;;;;;9.14;100.00;96109.80;109957;1275;22097;-92
2023/10/28 00:45:09;;;;;;;7.50;6.50;;;;;;;9.10;100.00;96108.67;109949;1268;22288;-88
2023/10/28 00:47:38;;;;;;;9.70;6.30;;;;;;;9.08;100.00;96114.34;110023;1278;22125;-90
2023/10/28 00:50:15;;;;;;;8.40;5.90;;;;;;;9.10;100.00;96115.27;110020;1283;22200;-92
2023/10/28 00:52:45;;;;;;;9.80;5.90;;;;;;;9.09;100.00;96111.02;110056;1282;22276;-91
2023/10/28 00:55:16;;;;;;;9.10;6.10;;;;;;;9.11;100.00;96111.91;110029;1267;22221;-91
2023/10/28 00:57:45;;;;;;;7.50;6.00;;;;;;;9.08;100.00;96109.13;109950;1282;22327;-89
2023/10/28 01:00:17;;;;;;;7.00;5.40;;;;;;;9.09;100.00;96109.16;109910;1282;22113;-91
2023/10/28 01:02:45;;;;;;;7.60;5.60;;;;;;;9.09;100.00;96111.23;109995;1275;23129;-91
2023/10/28 01:05:14;;;;;;;6.60;5.90;;;;;;;9.09;100.00;96111.77;109989;1275;22333;-91
2023/10/28 01:07:47;;;;;;;8.20;6.10;;;;;;;9.07;100.00;96116.38;109937;1282;22178;-90
2023/10/28 01:10:26;;;;;;;7.90;6.40;;;;;;;9.04;100.00;96125.89;109930;1278;22215;-92
2023/10/28 01:12:54;;;;;;;8.30;6.80;;;;;;;9.04;100.00;96128.51;109982;1278;22159;-91
2023/10/28 01:15:23;;;;;;;6.70;5.80;;;;;;;9.03;100.00;96128.30;110019;1267;22981;-90
2023/10/28 01:17:52;;;;;;;10.50;6.20;;;;;;;9.06;100.00;96125.56;110000;1282;23526;-88
2023/10/28 01:20:20;;;;;;;8.80;5.70;;;;;;;9.06;100.00;96127.20;109940;1282;22303;-91
2023/10/28 01:22:48;;;;;;;7.70;5.70;;;;;;;9.11;100.00;96131.17;109990;1282;22229;-90
2023/10/28 01:25:16;;;;;;;10.70;6.90;;;;;;;9.10;100.00;96133.85;110013;1275;22125;-89
2023/10/28 01:27:44;;;;;;;9.20;6.00;;;;;;;9.08;100.00;96134.70;110009;1278;22117;-91
2023/10/28 01:30:13;;;;;;;8.70;6.20;;;;;;;9.07;100.00;96136.29;110014;1282;22864;-90
2023/10/28 01:32:44;;;;;;;6.30;5.60;;;;;;;9.10;100.00;96139.29;109984;1267;22994;-89
2023/10/28 01:35:13;;;;;;;6.90;5.60;;;;;;;9.11;100.00;96144.91;110013;1282;22104;-89
2023/10/28 01:37:42;;;;;;;10.80;5.60;;;;;;;9.12;100.00;96147.66;109907;1281;22295;-89
2023/10/28 01:40:13;;;;;;;7.30;5.30;;;;;;;9.16;100.00;96147.02;110047;1275;22876;-87
2023/10/28 01:42:45;;;;;;;8.20;5.50;;;;;;;9.20;100.00;96149.98;110034;1268;22225;-90
2023/10/28 01:45:15;;;;;;;6.50;5.20;;;;;;;9.16;100.00;96163.42;109943;1282;22281;-91
2023/10/28 01:47:43;;;;;;;7.60;5.70;;;;;;;9.14;100.00;96161.91;110020;1282;22216;-92
2023/10/28 01:50:12;;;;;;;8.70;5.40;;;;;;;9.11;100.00;96167.20;109990;1282;23111;-90
2023/10/28 01:52:42;;;;;;;6.20;5.20;;;;;;;9.12;100.00;96168.35;110048;1278;22942;-91
2023/10/28 01:55:11;;;;;;;9.90;4.50;;;;;;;9.12;100.00;96165.38;109977;1274;22227;-91
2023/10/28 01:57:40;;;;;;;6.70;5.20;;;;;;;9.14;100.00;96170.87;110002;1278;22700;-89
2023/10/28 02:00:12;;;;;;;6.60;5.00;;;;;;;9.14;100.00;96166.98;109902;1275;22211;-90
2023/10/28 02:02:46;;;;;;;7.80;5.90;;;;;;;9.13;100.00;96171.86;109926;1282;22170;-91
2023/10/28 02:05:16;;;;;;;7.60;4.90;;;;;;;9.11;100.00;96172.95;109997;1278;22263;-92
2023/10/28 02:07:45;;;;;;;9.50;5.50;;;;;;;9.12;100.00;96182.80;110000;1282;22254;-91
2023/10/28 02:10:13;;;;;;;6.90;5.20;;;;;;;9.12;100.00;96180.66;110030;1279;22165;-92
2023/10/28 02:12:41;;;;;;;6.50;5.00;;;;;;;9.16;100.00;96183.56;110001;1282;22171;-88
2023/10/28 02:15:11;;;;;;;7.80;5.40;;;;;;;9.15;100.00;96187.30;110019;1282;22384;-92
2023/10/28 02:17:39;;;;;;;8.10;5.00;;;;;;;9.11;100.00;96186.70;110004;1282;22207;-91
2023/10/28 02:20:09;;;;;;;6.10;4.80;;;;;;;9.08;100.00;96191.27;110012;1282;22195;-93
2023/10/28 02:22:38;;;;;;;8.10;5.00;;;;;;;9.10;100.00;96196.86;109928;1278;22209;-90
2023/10/28 02:25:08;;;;;;;5.60;4.30;;;;;;;9.11;100.00;96199.36;110052;1282;23084;-87
2023/10/28 02:27:39;;;;;;;5.30;4.40;;;;;;;9.14;100.00;96201.51;110111;1267;22196;-86
2023/10/28 02:30:11;;;;;;;5.70;4.30;;;;;;;9.12;100.00;96207.91;110126;1279;22245;-89
2023/10/28 02:32:41;;;;;;;6.70;4.00;;;;;;;9.08;100.00;96211.30;110058;1282;22233;-89
2023/10/28 02:35:10;;;;;;;5.20;4.00;;;;;;;9.05;100.00;96216.66;109963;1283;22736;-89
2023/10/28 02:37:39;;;;;;;5.90;3.60;;;;;;;9.03;100.00;96221.03;110010;1282;22745;-92
2023/10/28 02:40:08;;;;;;;8.00;4.10;;;;;;;9.06;100.00;96224.43;110000;1282;22948;-90
2023/10/28 02:42:36;;;;;;;5.10;4.10;;;;;;;9.05;100.00;96228.64;109998;1275;22120;-89
2023/10/28 02:45:07;;;;;;;5.70;3.90;;;;;;;9.04;100.00;96226.99;109985;1282;22217;-90
2023/10/28 02:47:35;;;;;;;5.90;4.00;;;;;;;9.03;100.00;96228.02;110016;1282;22397;-89
2023/10/28 02:50:04;;;;;;;4.90;3.70;;;;;;;9.02;100.00;96231.27;110021;1282;23051;-91
2023/10/28 02:52:32;;;;;;;7.90;4.30;;;;;;;9.04;100.00;96221.46;110061;1271;22219;-91
2023/10/28 02:55:00;;;;;;;5.70;4.20;;;;;;;9.04;100.00;96221.60;110023;1282;23106;-89
2023/10/28 02:57:29;;;;;;;9.60;4.60;;;;;;;9.06;100.00;96228.38;110037;1282;22217;-90
2023/10/28 02:59:56;;;;;;;7.60;4.40;;;;;;;9.03;100.00;96226.50;110026;1282;22192;-89
2023/10/28 03:02:24;;;;;;;5.40;4.30;;;;;;;9.03;100.00;96230.45;109981;1273;22833;-83
2023/10/28 03:04:52;;;;;;;5.00;4.20;;;;;;;9.04;100.00;96220.77;109949;1282;22109;-90
2023/10/28 03:07:20;;;;;;;4.40;3.90;;;;;;;9.05;100.00;96218.02;110026;1282;22125;-91
2023/10/28 03:09:48;;;;;;;5.70;4.00;;;;;;;9.06;100.00;96218.74;110012;1282;22388;-91
2023/10/28 03:12:16;;;;;;;7.30;4.20;;;;;;;9.06;100.00;96220.22;109992;1282;22222;-89
2023/10/28 03:14:44;;;;;;;5.60;4.10;;;;;;;9.07;100.00;96219.87;109988;1282;22244;-91
2023/10/28 03:17:12;;;;;;;5.70;4.10;;;;;;;9.04;100.00;96232.37;110024;1282;22196;-92
2023/10/28 03:19:40;;;;;;;5.10;4.00;;;;;;;9.04;100.00;96231.27;110020;1282;22199;-89
2023/10/28 03:22:08;;;;;;;6.50;3.70;;;;;;;9.08;100.00;96228.36;109981;1282;22191;-91
2023/10/28 03:24:36;;;;;;;5.10;4.10;;;;;;;9.07;100.00;96227.48;110009;1271;22411;-88
2023/10/28 03:27:05;;;;;;;5.90;3.90;;;;;;;9.07;100.00;96229.23;110001;1282;23410;-91
2023/10/28 03:29:33;;;;;;;6.50;3.60;;;;;;;9.06;100.00;96230.13;109918;1282;22257;-91
2023/10/28 03:32:01;;;;;;;5.80;3.90;;;;;;;9.07;100.00;96228.38;109982;1282;23184;-89
2023/10/28 03:34:30;;;;;;;7.00;3.80;;;;;;;9.06;100.00;96235.74;110000;1282;22913;-90
2023/10/28 03:36:58;;;;;;;6.90;3.90;;;;;;;9.05;100.00;96233.48;109985;1282;22307;-90
2023/10/28 03:39:27;;;;;;;5.30;3.80;;;;;;;9.05;100.00;96234.61;109968;1280;22302;-88
2023/10/28 03:41:55;;;;;;;5.50;3.90;;;;;;;9.03;100.00;96235.26;109981;1275;22363;-89
2023/10/28 03:44:23;;;;;;;5.50;3.90;;;;;;;9.02;100.00;96230.74;109913;1283;22203;-90
2023/10/28 03:46:51;;;;;;;4.80;3.30;;;;;;;9.01;100.00;96230.55;109905;1280;22192;-89
2023/10/28 03:49:19;;;;;;;5.90;3.60;;;;;;;8.99;100.00;96234.78;110005;1276;22117;-91
2023/10/28 03:51:47;;;;;;;5.60;3.60;;;;;;;8.97;100.00;96236.54;110008;1270;22557;-91
2023/10/28 03:54:15;;;;;;;5.50;3.60;;;;;;;8.97;100.00;96240.15;110008;1282;22257;-89
2023/10/28 03:56:43;;;;;;;5.80;4.30;;;;;;;8.98;100.00;96236.12;109999;1282;22385;-90
2023/10/28 03:59:13;;;;;;;4.70;3.30;;;;;;;8.92;100.00;96231.05;110004;1279;22223;-88
2023/10/28 04:01:42;;;;;;;4.40;3.40;;;;;;;8.90;100.00;96235.27;110004;1282;22203;-90
2023/10/28 04:04:10;;;;;;;4.80;3.20;;;;;;;8.90;100.00;96239.88;110005;1282;22229;-87
2023/10/28 04:06:38;;;;;;;4.70;3.00;;;;;;;8.90;100.00;96243.58;109999;1278;22398;-92
2023/10/28 04:09:07;;;;;;;4.40;3.20;;;;;;;8.91;100.00;96238.39;110016;1282;22686;-87
2023/10/28 04:11:35;;;;;;;5.80;3.70;;;;;;;8.94;100.00;96246.18;110029;1282;22311;-89
2023/10/28 04:14:03;;;;;;;5.50;3.40;;;;;;;8.89;100.00;96243.40;109997;1282;22229;-90
2023/10/28 04:16:31;;;;;;;8.10;3.70;;;;;;;8.90;100.00;96251.33;110002;1271;22165;-90
2023/10/28 04:18:59;;;;;;;5.40;3.70;;;;;;;8.87;100.00;96251.40;109990;1282;22936;-92
2023/10/28 04:21:29;;;;;;;6.30;3.70;;;;;;;8.89;100.00;96249.08;110003;1282;22104;-91
2023/10/28 04:23:57;;;;;;;6.40;4.00;;;;;;;8.92;100.00;96255.17;109990;1282;22180;-89
2023/10/28 04:26:24;;;;;;;5.60;3.50;;;;;;;8.89;100.00;96254.68;110001;1282;22111;-91
2023/10/28 04:28:53;;;;;;;5.40;3.90;;;;;;;8.85;100.00;96251.52;109983;1282;22210;-91
2023/10/28 04:31:21;;;;;;;5.20;3.90;;;;;;;8.83;100.00;96256.75;109989;1282;22187;-90
2023/10/28 04:33:49;;;;;;;6.00;4.10;;;;;;;8.83;100.00;96253.17;110038;1282;22925;-87
2023/10/28 04:36:17;;;;;;;6.00;4.30;;;;;;;8.84;100.00;96262.27;109992;1282;22196;-87
2023/10/28 04:38:45;;;;;;;8.60;4.00;;;;;;;8.84;100.00;96266.79;110006;1282;22415;-87
2023/10/28 04:41:13;;;;;;;7.70;4.70;;;;;;;8.83;100.00;96273.48;109991;1282;22212;-89
2023/10/28 04:43:41;;;;;;;15.50;8.90;;;;;;;8.80;100.00;96273.84;110023;1282;22228;-92
2023/10/28 04:46:10;;;;;;;60.10;27.80;;;;;;;8.80;100.00;96275.44;110017;1282;22133;-90
2023/10/28 04:48:38;;;;;;;88.10;31.20;;;;;;;8.79;100.00;96271.88;109979;1282;23124;-92
2023/10/28 04:51:06;;;;;;;192.20;51.30;;;;;;;8.80;100.00;96273.00;109979;1282;22419;-90
2023/10/28 04:53:34;;;;;;;41.40;19.70;;;;;;;8.82;100.00;96278.85;109924;1282;22215;-91
2023/10/28 04:56:02;;;;;;;27.20;13.40;;;;;;;8.79;100.00;96278.77;110020;1282;22182;-89
2023/10/28 04:58:31;;;;;;;7.40;5.10;;;;;;;8.75;100.00;96284.14;109988;1278;22283;-91
2023/10/28 05:00:58;;;;;;;10.10;4.90;;;;;;;8.72;100.00;96289.24;110018;1278;22208;-92
2023/10/28 05:03:26;;;;;;;5.20;4.00;;;;;;;8.70;100.00;96291.25;110014;1271;22205;-89
2023/10/28 05:05:54;;;;;;;5.80;4.40;;;;;;;8.71;100.00;96294.27;109996;1271;22249;-90
2023/10/28 05:08:22;;;;;;;7.90;4.90;;;;;;;8.69;100.00;96297.88;110023;1271;22209;-90
2023/10/28 05:10:51;;;;;;;7.20;4.20;;;;;;;8.66;100.00;96297.40;110045;1271;22271;-90
2023/10/28 05:13:19;;;;;;;8.30;4.10;;;;;;;8.60;100.00;96299.10;110036;1278;22597;-90
2023/10/28 05:15:48;;;;;;;6.20;3.80;;;;;;;8.59;100.00;96302.05;110030;1269;22395;-90
2023/10/28 05:18:16;;;;;;;7.90;3.40;;;;;;;8.56;100.00;96298.77;110028;1271;22665;-88
2023/10/28 05:20:44;;;;;;;5.80;4.30;;;;;;;8.54;100.00;96299.88;109934;1275;22246;-90
2023/10/28 05:23:13;;;;;;;6.80;4.80;;;;;;;8.54;100.00;96301.91;110037;1263;22229;-89
2023/10/28 05:25:43;;;;;;;7.20;5.40;;;;;;;8.51;100.00;96308.94;110060;1278;22184;-90
2023/10/28 05:28:11;;;;;;;8.20;5.40;;;;;;;8.48;100.00;96306.81;110028;1282;22110;-91
2023/10/28 05:30:39;;;;;;;6.70;5.00;;;;;;;8.45;100.00;96310.00;110022;1282;22885;-89
2023/10/28 05:33:07;;;;;;;7.60;4.60;;;;;;;8.44;100.00;96314.17;110039;1278;22220;-91
2023/10/28 05:35:35;;;;;;;6.70;5.00;;;;;;;8.44;100.00;96312.73;109948;1281;22201;-89
2023/10/28 05:38:03;;;;;;;8.10;4.50;;;;;;;8.41;100.00;96310.99;110028;1282;22114;-93
2023/10/28 05:40:31;;;;;;;9.50;5.30;;;;;;;8.36;100.00;96314.85;110036;1271;22262;-90
2023/10/28 05:42:59;;;;;;;6.80;5.00;;;;;;;8.35;100.00;96318.30;110032;1275;22108;-88
2023/10/28 05:45:28;;;;;;;9.70;5.00;;;;;;;8.36;100.00;96316.22;109987;1274;22225;-88
2023/10/28 05:47:56;;;;;;;7.10;5.40;;;;;;;8.36;100.00;96325.74;110058;1282;22347;-90
2023/10/28 05:50:24;;;;;;;11.90;6.30;;;;;;;8.33;100.00;96323.67;110035;1271;22401;-90
2023/10/28 05:52:54;;;;;;;9.50;6.10;;;;;;;8.30;100.00;96324.79;109990;1271;22236;-90
2023/10/28 05:55:22;;;;;;;8.60;6.10;;;;;;;8.30;100.00;96323.25;110024;1282;22197;-91
2023/10/28 05:57:50;;;;;;;7.90;4.50;;;;;;;8.31;100.00;96324.28;110027;1271;22199;-91
2023/10/28 06:00:18;;;;;;;8.60;5.40;;;;;;;8.31;100.00;96327.13;109964;1281;22200;-92
2023/10/28 06:02:46;;;;;;;7.70;6.60;;;;;;;8.33;100.00;96331.13;109993;1278;22198;-90
2023/10/28 06:05:14;;;;;;;7.90;6.30;;;;;;;8.38;100.00;96331.52;110064;1271;22258;-93
2023/10/28 06:07:47;;;;;;;9.30;7.00;;;;;;;8.38;100.00;96335.42;110041;1281;22191;-88
2023/10/28 06:10:15;;;;;;;8.40;6.50;;;;;;;8.39;100.00;96341.15;109984;1273;22105;-91
2023/10/28 06:12:43;;;;;;;7.70;5.70;;;;;;;8.37;100.00;96347.32;110034;1275;22154;-88
2023/10/28 06:15:11;;;;;;;7.70;5.50;;;;;;;8.38;100.00;96351.99;110180;1282;22212;-92
2023/10/28 06:17:39;;;;;;;7.30;5.20;;;;;;;8.41;100.00;96356.33;110194;1268;22294;-85
2023/10/28 06:20:08;;;;;;;8.20;5.40;;;;;;;8.45;100.00;96359.84;110174;1278;22206;-91
2023/10/28 06:22:36;;;;;;;6.20;4.70;;;;;;;8.47;100.00;96363.00;110091;1282;23121;-90
2023/10/28 06:25:04;;;;;;;6.80;4.70;;;;;;;8.47;100.00;96370.23;110072;1279;22221;-92
2023/10/28 06:27:35;;;;;;;7.20;5.20;;;;;;;8.51;100.00;96374.82;110001;1281;22190;-90
2023/10/28 06:30:06;;;;;;;9.00;5.20;;;;;;;8.56;100.00;96378.99;109931;1283;22263;-93
2023/10/28 06:32:34;;;;;;;9.20;5.30;;;;;;;8.60;100.00;96385.14;109914;1279;22860;-92
2023/10/28 06:35:03;;;;;;;8.50;4.60;;;;;;;8.68;100.00;96390.52;109983;1278;22111;-92
2023/10/28 06:37:31;;;;;;;7.50;5.40;;;;;;;8.72;100.00;96397.57;109982;1267;22199;-90
2023/10/28 06:39:58;;;;;;;9.20;5.10;;;;;;;8.75;100.00;96400.17;109990;1280;22828;-91
2023/10/28 06:42:26;;;;;;;8.30;4.60;;;;;;;8.77;100.00;96404.25;109977;1272;22227;-88
2023/10/28 06:44:54;;;;;;;9.40;4.10;;;;;;;8.79;100.00;96408.23;109989;1271;22121;-90
2023/10/28 06:47:22;;;;;;;8.20;4.50;;;;;;;8.85;100.00;96412.52;110019;1273;22236;-91
2023/10/28 06:49:51;;;;;;;7.90;4.50;;;;;;;8.86;100.00;96416.88;109960;1282;22124;-91
2023/10/28 06:52:19;;;;;;;7.30;4.80;;;;;;;8.89;100.00;96419.29;109999;1279;22279;-93
2023/10/28 06:54:47;;;;;;;8.30;4.60;;;;;;;8.93;100.00;96426.29;110038;1269;22885;-91
2023/10/28 06:57:15;;;;;;;8.40;4.40;;;;;;;9.00;100.00;96428.17;110027;1276;22277;-90
2023/10/28 06:59:43;;;;;;;9.30;4.70;;;;;;;9.04;100.00;96427.86;110012;1279;22275;-91
2023/10/28 07:02:12;;;;;;;9.00;5.40;;;;;;;9.06;100.00;96431.26;110030;1278;23025;-89
2023/10/28 07:04:41;;;;;;;6.90;4.50;;;;;;;9.10;100.00;96437.23;110015;1272;22124;-91
2023/10/28 07:07:14;;;;;;;8.60;4.20;;;;;;;9.18;100.00;96443.23;109989;1279;22134;-93
2023/10/28 07:09:42;;;;;;;24.10;9.50;;;;;;;9.27;100.00;96448.11;110010;1280;22196;-92
2023/10/28 07:12:10;;;;;;;34.60;13.40;;;;;;;9.31;100.00;96451.95;110050;1282;22218;-91
2023/10/28 07:14:38;;;;;;;12.70;6.20;;;;;;;9.35;100.00;96453.92;110045;1282;22197;-92
2023/10/28 07:17:06;;;;;;;19.50;8.70;;;;;;;9.41;100.00;96454.54;110014;1268;22469;-88
2023/10/28 07:19:34;;;;;;;38.90;21.90;;;;;;;9.47;100.00;96451.88;109998;1267;22180;-93
2023/10/28 07:22:02;;;;;;;13.30;6.60;;;;;;;9.59;100.00;96461.73;110023;1267;22243;-91
2023/10/28 07:24:31;;;;;;;9.80;5.70;;;;;;;9.62;100.00;96464.02;110008;1275;22214;-90
2023/10/28 07:26:59;;;;;;;6.90;4.40;;;;;;;9.65;100.00;96472.41;110099;1278;22215;-90
2023/10/28 07:29:27;;;;;;;6.20;3.90;;;;;;;9.70;100.00;96472.60;110061;1282;22215;-91
2023/10/28 07:31:56;;;;;;;7.10;3.50;;;;;;;9.72;100.00;96471.09;109937;1281;22238;-89
2023/10/28 07:34:24;;;;;;;6.10;3.70;;;;;;;9.80;100.00;96478.51;110012;1275;22234;-90
2023/10/28 07:36:52;;;;;;;6.60;4.30;;;;;;;9.87;100.00;96486.52;109951;1275;22301;-88
2023/10/28 07:39:20;;;;;;;8.10;4.50;;;;;;;9.91;100.00;96485.33;110053;1279;22765;-88
2023/10/28 07:41:48;;;;;;;6.40;4.00;;;;;;;9.98;100.00;96494.56;110036;1267;22214;-86
2023/10/28 07:44:16;;;;;;;8.00;4.50;;;;;;;10.06;100.00;96495.30;110071;1276;22131;-88
2023/10/28 07:46:43;;;;;;;7.60;4.30;;;;;;;10.16;100.00;96492.05;110014;1279;22198;-91
2023/10/28 07:49:12;;;;;;;5.30;3.80;;;;;;;10.25;100.00;96498.38;109994;1282;22246;-87
2023/10/28 07:51:40;;;;;;;6.10;3.90;;;;;;;10.32;100.00;96495.48;109994;1272;22208;-88
2023/10/28 07:54:08;;;;;;;9.40;4.30;;;;;;;10.37;100.00;96501.90;109986;1282;22209;-86
2023/10/28 07:56:36;;;;;;;6.50;4.30;;;;;;;10.44;100.00;96503.89;109949;1281;22314;-86
2023/10/28 07:59:04;;;;;;;10.20;4.50;;;;;;;10.51;100.00;96506.94;109952;1282;22340;-90
2023/10/28 08:01:33;;;;;;;6.30;4.60;;;;;;;10.59;100.00;96511.25;110008;1278;22235;-90
2023/10/28 08:04:04;;;;;;;9.10;5.90;;;;;;;10.62;100.00;96518.62;109963;1282;23157;-89
2023/10/28 08:06:32;;;;;;;6.00;4.60;;;;;;;10.67;100.00;96522.95;110006;1282;22374;-88
2023/10/28 08:09:05;;;;;;;8.60;5.10;;;;;;;10.75;100.00;96520.06;110005;1282;22363;-90
2023/10/28 08:11:35;;;;;;;6.50;5.10;;;;;;;10.81;100.00;96525.41;110023;1282;22189;-89
2023/10/28 08:14:06;;;;;;;7.70;5.30;;;;;;;10.88;100.00;96527.83;109868;1271;22337;-89
2023/10/28 08:16:35;;;;;;;10.10;5.90;;;;;;;10.93;100.00;96536.05;110004;1267;22223;-87
2023/10/28 08:19:03;;;;;;;6.40;4.10;;;;;;;11.00;100.00;96531.18;110014;1278;23389;-89
2023/10/28 08:21:32;;;;;;;7.50;4.90;;;;;;;11.03;100.00;96534.63;110004;1282;22222;-89
2023/10/28 08:24:00;;;;;;;9.00;5.60;;;;;;;11.03;100.00;96536.91;109972;1267;22326;-88
2023/10/28 08:26:28;;;;;;;9.90;6.80;;;;;;;11.01;100.00;96537.38;109990;1275;22431;-90
2023/10/28 08:28:59;;;;;;;7.90;5.40;;;;;;;10.99;100.00;96539.50;110000;1279;23153;-87
2023/10/28 08:31:28;;;;;;;9.50;5.40;;;;;;;11.06;100.00;96540.19;110004;1282;23269;-89
2023/10/28 08:33:56;;;;;;;5.70;3.90;;;;;;;11.19;100.00;96546.39;110034;1282;22480;-88
2023/10/28 08:36:25;;;;;;;6.40;4.20;;;;;;;11.30;100.00;96550.97;109981;1276;22221;-85
2023/10/28 08:38:53;;;;;;;6.40;4.00;;;;;;;11.37;100.00;96555.92;109982;1275;22252;-88
2023/10/28 08:41:22;;;;;;;5.80;3.60;;;;;;;11.46;100.00;96560.73;110016;1276;23173;-85
2023/10/28 08:43:51;;;;;;;5.10;3.40;;;;;;;11.56;99.31;96567.24;109987;1277;22873;-86
2023/10/28 08:46:19;;;;;;;5.30;3.30;;;;;;;11.62;98.84;96573.13;109994;1275;22188;-85
2023/10/28 08:48:48;;;;;;;6.10;3.40;;;;;;;11.67;97.70;96579.91;109967;1279;22199;-87
2023/10/28 08:51:21;;;;;;;6.20;3.60;;;;;;;11.72;96.91;96575.34;109915;1282;22267;-87
2023/10/28 08:53:51;;;;;;;5.40;3.70;;;;;;;11.78;97.09;96580.24;109920;1279;22779;-85
2023/10/28 08:56:23;;;;;;;13.10;9.90;;;;;;;11.96;98.25;96579.19;109998;1282;22195;-86
2023/10/28 08:58:52;;;;;;;7.90;6.10;;;;;;;12.18;98.36;96577.92;109997;1276;22388;-87
2023/10/28 09:01:24;;;;;;;21.00;19.00;;;;;;;12.33;96.76;96583.45;109991;1275;22218;-91
2023/10/28 09:03:54;;;;;;;7.60;6.80;;;;;;;12.44;95.05;96589.85;109982;1276;22123;-89
2023/10/28 09:06:22;;;;;;;12.80;11.40;;;;;;;12.52;94.39;96590.17;109981;1279;22225;-85
2023/10/28 09:08:50;;;;;;;9.30;8.10;;;;;;;12.55;92.98;96599.53;109932;1276;23047;-83
2023/10/28 09:11:19;;;;;;;39.50;35.80;;;;;;;12.62;94.51;96592.06;110036;1282;22217;-92
2023/10/28 09:13:47;;;;;;;15.00;13.40;;;;;;;12.78;93.12;96590.04;110004;1282;22180;-86
2023/10/28 09:16:15;;;;;;;4.60;3.20;;;;;;;12.86;92.09;96591.33;109997;1278;22206;-88
2023/10/28 09:18:44;;;;;;;7.80;6.60;;;;;;;12.88;91.03;96593.65;110070;1282;22215;-92
2023/10/28 09:21:13;;;;;;;6.10;4.00;;;;;;;12.88;90.21;96595.10;109988;1276;22222;-83
2023/10/28 09:23:44;;;;;;;5.40;3.10;;;;;;;12.87;88.93;96602.04;110013;1274;22334;-83
2023/10/28 09:26:12;;;;;;;6.90;4.90;;;;;;;12.91;90.16;96605.07;110037;1280;22247;-84
2023/10/28 09:28:44;;;;;;;7.00;4.70;;;;;;;13.04;90.84;96612.77;109942;1282;22135;-84
2023/10/28 09:31:23;;;;;;;8.60;5.20;;;;;;;13.24;91.68;96603.61;110015;1281;22873;-83
2023/10/28 09:33:51;;;;;;;7.10;4.70;;;;;;;13.46;91.58;96605.82;109989;1276;22278;-83
2023/10/28 09:36:20;;;;;;;5.50;3.70;;;;;;;13.53;90.19;96605.86;109995;1275;22093;-83
2023/10/28 09:38:49;;;;;;;6.70;3.20;;;;;;;13.55;88.28;96604.56;110005;1282;22229;-83
2023/10/28 09:41:18;;;;;;;6.30;3.60;;;;;;;13.53;89.76;96607.61;110021;1282;22212;-87
2023/10/28 09:43:47;;;;;;;20.10;18.20;;;;;;;13.51;87.69;96610.05;109943;1276;22132;-86
2023/10/28 09:46:19;;;;;;;8.80;6.20;;;;;;;13.40;87.10;96612.32;109952;1283;22201;-86
2023/10/28 09:48:49;;;;;;;17.10;11.30;;;;;;;13.34;87.65;96610.01;109858;1282;165720;-88
2023/10/28 09:51:20;;;;;;;7.00;4.70;;;;;;;13.32;87.31;96614.58;110049;1279;23067;-83
2023/10/28 09:53:55;;;;;;;9.90;4.10;;;;;;;13.31;87.82;96606.98;110039;1282;23052;-86
2023/10/28 09:56:30;;;;;;;4.90;3.70;;;;;;;13.32;86.73;96623.33;110159;1275;22156;-87
2023/10/28 09:59:04;;;;;;;6.10;3.20;;;;;;;13.23;84.85;96616.42;109947;1281;22226;-87
2023/10/28 10:02:01;;;;;;;5.40;2.70;;;;;;;13.08;84.91;96607.61;110018;1275;23097;-87
2023/10/28 10:05:45;;;;;;;6.50;3.10;;;;;;;12.99;84.13;96612.00;110012;1275;22881;-87
2023/10/28 10:08:24;;;;;;;5.60;3.50;;;;;;;12.84;85.41;96610.27;109159;1283;23105;-88
2023/10/28 10:10:56;;;;;;;5.40;2.80;;;;;;;12.83;86.55;96604.08;109496;1280;22273;-87
2023/10/28 10:13:24;;;;;;;4.60;2.40;;;;;;;12.85;87.03;96604.67;109923;1275;22233;-86
2023/10/28 10:16:03;;;;;;;6.10;3.50;;;;;;;12.80;86.56;96607.70;110024;1275;22119;-85
2023/10/28 10:18:32;;;;;;;7.80;3.10;;;;;;;12.77;85.90;96608.16;109990;1276;22278;-86
2023/10/28 10:21:04;;;;;;;4.50;2.70;;;;;;;12.68;85.98;96604.29;110014;1282;22218;-86
2023/10/28 10:24:00;;;;;;;4.10;2.70;;;;;;;12.66;86.08;96617.37;110000;1282;23021;-87
2023/10/28 10:26:33;;;;;;;3.00;2.30;;;;;;;12.64;86.64;96611.69;110008;1270;22359;-86
2023/10/28 10:29:05;;;;;;;4.80;2.70;;;;;;;12.73;87.19;96618.70;109987;1275;22234;-86
2023/10/28 10:31:36;;;;;;;4.30;2.90;;;;;;;12.82;87.02;96616.17;109937;1282;22188;-87
2023/10/28 10:34:09;;;;;;;3.90;2.70;;;;;;;12.85;86.82;96620.73;109947;1283;22228;-88
2023/10/28 10:36:40;;;;;;;5.50;2.80;;;;;;;12.88;86.41;96616.73;109927;1282;22263;-86
2023/10/28 10:39:20;;;;;;;6.20;2.90;;;;;;;12.89;85.55;96624.48;109984;1282;22205;-86
2023/10/28 10:41:52;;;;;;;6.90;3.00;;;;;;;12.93;85.47;96615.48;109926;1282;22208;-89
2023/10/28 10:45:22;;;;;;;17.40;15.90;;;;;;;13.05;85.53;96613.64;109887;1278;22139;-88
2023/10/28 10:48:11;;;;;;;6.80;4.60;;;;;;;13.23;85.84;96623.85;109812;1285;23102;-86
2023/10/28 10:50:40;;;;;;;6.50;4.80;;;;;;;13.31;84.74;96625.86;109828;1285;22400;-87
2023/10/28 10:53:09;;;;;;;8.70;5.50;;;;;;;13.34;84.35;96624.62;109820;1285;22971;-87
2023/10/28 10:55:38;;;;;;;7.20;4.90;;;;;;;13.36;83.85;96631.09;109846;1285;22376;-90
2023/10/28 10:58:08;;;;;;;5.20;3.40;;;;;;;13.43;84.08;96633.88;109785;1280;22271;-85
2023/10/28 11:00:37;;;;;;;7.10;3.30;;;;;;;13.52;83.62;96634.59;109853;1282;22109;-89
2023/10/28 11:03:07;;;;;;;9.20;5.10;;;;;;;13.66;84.25;96629.83;109860;1285;22365;-87
2023/10/28 11:05:36;;;;;;;6.80;3.10;;;;;;;13.83;83.00;96635.48;109863;1285;22192;-87
2023/10/28 11:08:04;;;;;;;5.40;3.10;;;;;;;13.90;81.83;96634.18;109847;1278;22251;-89
2023/10/28 11:10:32;;;;;;;4.60;3.00;;;;;;;13.92;81.38;96637.48;109875;1285;22233;-90
2023/10/28 11:13:04;;;;;;;4.70;2.70;;;;;;;13.88;80.12;96644.65;109912;1278;22220;-89
2023/10/28 11:15:32;;;;;;;6.00;3.00;;;;;;;13.68;80.12;96645.03;109886;1279;22224;-84
2023/10/28 11:18:01;;;;;;;6.50;3.80;;;;;;;13.49;80.20;96649.02;109883;1279;22227;-84
2023/10/28 11:20:30;;;;;;;5.00;3.80;;;;;;;13.31;80.59;96646.40;109842;1280;22341;-84
2023/10/28 11:22:58;;;;;;;4.40;3.10;;;;;;;13.21;80.86;96643.56;109864;1285;22245;-85
2023/10/28 11:25:33;;;;;;;5.80;3.10;;;;;;;13.13;81.81;96640.73;109885;1282;22219;-84
2023/10/28 11:28:06;;;;;;;6.60;3.80;;;;;;;13.17;82.35;96641.30;109852;1278;22230;-85
2023/10/28 11:30:34;;;;;;;5.50;3.30;;;;;;;13.25;82.57;96635.34;109847;1285;22430;-84
2023/10/28 11:33:07;;;;;;;7.10;3.50;;;;;;;13.30;82.48;96636.80;109808;1277;23047;-85
2023/10/28 11:35:36;;;;;;;;;;;;;;;13.44;82.90;96629.28;109771;1279;22467;-84